createdAt,value
2023-05-12T00:00:35.547Z,765.00
2023-05-12T00:01:35.602Z,748.00
2023-05-12T00:02:35.724Z,746.00
2023-05-12T00:03:35.799Z,760.00
2023-05-12T00:04:35.794Z,760.00
2023-05-12T00:05:35.821Z,741.00
2023-05-12T00:06:35.867Z,752.00
2023-05-12T00:07:35.910Z,753.00
2023-05-12T00:08:35.961Z,767.00
2023-05-12T00:09:36.016Z,761.00
2023-05-12T00:10:36.062Z,744.00
2023-05-12T00:11:36.110Z,750.00
2023-05-12T00:12:36.162Z,757.00
2023-05-12T00:13:36.241Z,756.00
2023-05-12T00:14:36.256Z,741.00
2023-05-12T00:15:36.301Z,738.00
2023-05-12T00:16:36.393Z,746.00
2023-05-12T00:17:36.438Z,736.00
2023-05-12T00:18:36.471Z,739.00
2023-05-12T00:19:36.501Z,737.00
2023-05-12T00:20:36.548Z,749.00
2023-05-12T00:21:36.601Z,747.00
2023-05-12T00:22:36.644Z,738.00
2023-05-12T00:23:36.707Z,732.00
2023-05-12T00:24:36.745Z,743.00
2023-05-12T00:25:36.795Z,729.00
2023-05-12T00:26:36.844Z,725.00
2023-05-12T00:27:37.001Z,735.00
2023-05-12T00:28:36.983Z,732.00
2023-05-12T00:29:37.092Z,738.00
2023-05-12T00:30:37.090Z,745.00
2023-05-12T00:31:37.147Z,742.00
2023-05-12T00:32:37.197Z,745.00
2023-05-12T00:33:37.221Z,728.00
2023-05-12T00:34:37.271Z,725.00
2023-05-12T00:35:37.333Z,729.00
2023-05-12T00:36:37.376Z,726.00
2023-05-12T00:37:37.481Z,719.00
2023-05-12T00:38:37.526Z,729.00
2023-05-12T00:39:37.503Z,728.00
2023-05-12T00:40:37.552Z,730.00
2023-05-12T00:41:37.603Z,735.00
2023-05-12T00:42:37.660Z,722.00
2023-05-12T00:43:37.714Z,727.00
2023-05-12T00:44:37.767Z,719.00
2023-05-12T00:45:37.876Z,709.00
2023-05-12T00:46:37.899Z,733.00
2023-05-12T00:47:37.981Z,716.00
2023-05-12T00:48:38.031Z,722.00
2023-05-12T00:49:38.080Z,727.00
2023-05-12T00:50:38.145Z,733.00
2023-05-12T00:51:38.196Z,715.00
2023-05-12T00:52:38.345Z,725.00
2023-05-12T00:53:48.236Z,725.00
2023-05-12T00:54:39.334Z,725.00
2023-05-12T00:55:38.370Z,725.00
2023-05-12T00:56:38.381Z,724.00
2023-05-12T00:57:38.385Z,726.00
2023-05-12T00:58:38.398Z,740.00
2023-05-12T00:59:38.420Z,731.00
2023-05-12T01:00:38.474Z,715.00
2023-05-12T01:01:38.508Z,715.00
2023-05-12T01:02:38.531Z,715.00
2023-05-12T01:03:38.526Z,727.00
2023-05-12T01:04:38.518Z,705.00
2023-05-12T01:05:38.547Z,714.00
2023-05-12T01:06:38.562Z,706.00
2023-05-12T01:07:38.619Z,724.00
2023-05-12T01:08:38.608Z,726.00
2023-05-12T01:09:38.644Z,715.00
2023-05-12T01:10:38.697Z,717.00
2023-05-12T01:11:38.765Z,719.00
2023-05-12T01:12:38.813Z,712.00
2023-05-12T01:13:38.863Z,713.00
2023-05-12T01:14:38.932Z,705.00
2023-05-12T01:15:39.001Z,709.00
2023-05-12T01:16:39.036Z,716.00
2023-05-12T01:17:39.371Z,722.00
2023-05-12T01:18:39.174Z,703.00
2023-05-12T01:19:39.185Z,722.00
2023-05-12T01:20:39.249Z,710.00
2023-05-12T01:21:39.293Z,722.00
2023-05-12T01:22:39.341Z,696.00
2023-05-12T01:23:39.403Z,705.00
2023-05-12T01:24:39.443Z,708.00
2023-05-12T01:25:39.508Z,725.00
2023-05-12T01:26:39.538Z,729.00
2023-05-12T01:27:39.566Z,734.00
2023-05-12T01:28:39.602Z,727.00
2023-05-12T01:29:39.636Z,733.00
2023-05-12T01:30:39.677Z,739.00
2023-05-12T01:31:39.798Z,740.00
2023-05-12T01:32:39.782Z,741.00
2023-05-12T01:33:39.795Z,736.00
2023-05-12T01:34:39.829Z,728.00
2023-05-12T01:35:39.881Z,711.00
2023-05-12T01:36:39.907Z,705.00
2023-05-12T01:37:39.962Z,706.00
2023-05-12T01:38:39.999Z,702.00
2023-05-12T01:39:40.058Z,682.00
2023-05-12T01:40:40.093Z,700.00
2023-05-12T01:41:40.150Z,686.00
2023-05-12T01:42:40.198Z,690.00
2023-05-12T01:43:40.267Z,698.00
2023-05-12T01:44:40.339Z,692.00
2023-05-12T01:45:40.373Z,688.00
2023-05-12T01:46:40.506Z,712.00
2023-05-12T01:47:40.548Z,675.00
2023-05-12T01:48:40.550Z,701.00
2023-05-12T01:49:40.643Z,705.00
2023-05-12T01:50:40.670Z,694.00
2023-05-12T01:51:40.731Z,667.00
2023-05-12T01:52:40.795Z,681.00
2023-05-12T01:53:40.845Z,689.00
2023-05-12T01:54:41.028Z,680.00
2023-05-12T01:55:41.018Z,688.00
2023-05-12T01:56:41.033Z,686.00
2023-05-12T01:57:41.159Z,672.00
2023-05-12T01:58:41.214Z,681.00
2023-05-12T01:59:41.217Z,691.00
2023-05-12T02:00:41.285Z,693.00
2023-05-12T02:01:41.404Z,695.00
2023-05-12T02:02:42.950Z,680.00
2023-05-12T02:03:41.579Z,681.00
2023-05-12T02:04:41.545Z,682.00
2023-05-12T02:05:41.608Z,680.00
2023-05-12T02:06:41.660Z,691.00
2023-05-12T02:07:41.726Z,682.00
2023-05-12T02:08:41.774Z,681.00
2023-05-12T02:09:41.837Z,676.00
2023-05-12T02:10:41.906Z,672.00
2023-05-12T02:11:41.961Z,682.00
2023-05-12T02:12:42.027Z,680.00
2023-05-12T02:13:42.080Z,677.00
2023-05-12T02:14:42.140Z,684.00
2023-05-12T02:15:42.214Z,667.00
2023-05-12T02:16:42.322Z,680.00
2023-05-12T02:17:42.389Z,665.00
2023-05-12T02:18:42.460Z,680.00
2023-05-12T02:19:42.475Z,662.00
2023-05-12T02:20:42.534Z,674.00
2023-05-12T02:21:42.660Z,663.00
2023-05-12T02:22:42.732Z,675.00
2023-05-12T02:23:42.729Z,663.00
2023-05-12T02:24:42.772Z,683.00
2023-05-12T02:25:42.829Z,668.00
2023-05-12T02:26:42.886Z,663.00
2023-05-12T02:27:42.948Z,681.00
2023-05-12T02:28:43.000Z,671.00
2023-05-12T02:29:43.065Z,664.00
2023-05-12T02:30:43.111Z,681.00
2023-05-12T02:31:43.217Z,666.00
2023-05-12T02:32:43.323Z,678.00
2023-05-12T02:33:43.306Z,676.00
2023-05-12T02:34:43.379Z,674.00
2023-05-12T02:35:43.440Z,663.00
2023-05-12T02:36:43.507Z,674.00
2023-05-12T02:37:43.547Z,670.00
2023-05-12T02:38:43.627Z,671.00
2023-05-12T02:39:43.695Z,664.00
2023-05-12T02:40:43.761Z,664.00
2023-05-12T02:41:43.841Z,665.00
2023-05-12T02:42:43.906Z,667.00
2023-05-12T02:43:43.969Z,661.00
2023-05-12T02:44:44.037Z,667.00
2023-05-12T02:45:44.191Z,660.00
2023-05-12T02:46:44.179Z,662.00
2023-05-12T02:47:44.266Z,662.00
2023-05-12T02:48:44.331Z,660.00
2023-05-12T02:49:44.398Z,668.00
2023-05-12T02:50:44.461Z,659.00
2023-05-12T02:51:44.538Z,660.00
2023-05-12T02:52:44.628Z,662.00
2023-05-12T02:53:44.695Z,661.00
2023-05-12T02:54:44.761Z,662.00
2023-05-12T02:55:44.816Z,661.00
2023-05-12T02:56:44.888Z,661.00
2023-05-12T02:57:44.949Z,658.00
2023-05-12T02:58:45.023Z,662.00
2023-05-12T02:59:45.089Z,662.00
2023-05-12T03:00:45.162Z,655.00
2023-05-12T03:01:45.266Z,662.00
2023-05-12T03:02:45.353Z,659.00
2023-05-12T03:03:45.497Z,656.00
2023-05-12T03:04:45.449Z,659.00
2023-05-12T03:05:45.495Z,658.00
2023-05-12T03:06:45.593Z,659.00
2023-05-12T03:07:45.646Z,655.00
2023-05-12T03:08:45.704Z,661.00
2023-05-12T03:09:45.776Z,654.00
2023-05-12T03:10:45.837Z,656.00
2023-05-12T03:11:45.915Z,655.00
2023-05-12T03:12:45.993Z,659.00
2023-05-12T03:13:46.055Z,663.00
2023-05-12T03:14:46.127Z,659.00
2023-05-12T03:15:46.215Z,664.00
2023-05-12T03:16:46.327Z,660.00
2023-05-12T03:17:46.362Z,657.00
2023-05-12T03:18:46.426Z,653.00
2023-05-12T03:19:46.485Z,660.00
2023-05-12T03:20:46.554Z,651.00
2023-05-12T03:21:46.616Z,655.00
2023-05-12T03:22:46.689Z,650.00
2023-05-12T03:23:46.764Z,650.00
2023-05-12T03:24:46.829Z,656.00
2023-05-12T03:25:46.898Z,651.00
2023-05-12T03:26:46.975Z,653.00
2023-05-12T03:27:47.039Z,653.00
2023-05-12T03:28:47.098Z,653.00
2023-05-12T03:29:47.174Z,654.00
2023-05-12T03:30:47.252Z,652.00
2023-05-12T03:31:47.363Z,648.00
2023-05-12T03:32:47.449Z,657.00
2023-05-12T03:33:47.458Z,656.00
2023-05-12T03:34:47.523Z,656.00
2023-05-12T03:35:47.588Z,652.00
2023-05-12T03:36:47.665Z,650.00
2023-05-12T03:37:47.733Z,654.00
2023-05-12T03:38:47.815Z,647.00
2023-05-12T03:39:47.878Z,646.00
2023-05-12T03:40:47.944Z,649.00
2023-05-12T03:41:48.011Z,650.00
2023-05-12T03:42:48.095Z,655.00
2023-05-12T03:43:48.154Z,656.00
2023-05-12T03:44:48.243Z,652.00
2023-05-12T03:45:48.302Z,657.00
2023-05-12T03:46:48.441Z,655.00
2023-05-12T03:47:48.559Z,643.00
2023-05-12T03:48:48.527Z,653.00
2023-05-12T03:49:48.615Z,650.00
2023-05-12T03:50:48.674Z,647.00
2023-05-12T03:51:48.749Z,650.00
2023-05-12T03:52:48.828Z,651.00
2023-05-12T03:53:48.896Z,644.00
2023-05-12T03:54:48.983Z,652.00
2023-05-12T03:55:49.048Z,646.00
2023-05-12T03:56:49.130Z,650.00
2023-05-12T03:57:49.198Z,647.00
2023-05-12T03:58:49.272Z,651.00
2023-05-12T03:59:49.358Z,649.00
2023-05-12T04:00:49.420Z,646.00
2023-05-12T04:01:49.505Z,647.00
2023-05-12T04:02:49.737Z,640.00
2023-05-12T04:03:49.737Z,646.00
2023-05-12T04:04:49.704Z,644.00
2023-05-12T04:05:49.790Z,644.00
2023-05-12T04:06:49.863Z,639.00
2023-05-12T04:07:49.927Z,648.00
2023-05-12T04:08:50.002Z,645.00
2023-05-12T04:09:50.070Z,645.00
2023-05-12T04:10:50.143Z,645.00
2023-05-12T04:11:50.218Z,643.00
2023-05-12T04:12:50.291Z,642.00
2023-05-12T04:13:50.366Z,644.00
2023-05-12T04:14:50.442Z,642.00
2023-05-12T04:15:50.516Z,644.00
2023-05-12T04:16:50.687Z,645.00
2023-05-12T04:17:50.686Z,638.00
2023-05-12T04:18:50.748Z,644.00
2023-05-12T04:19:50.805Z,635.00
2023-05-12T04:20:50.883Z,642.00
2023-05-12T04:21:50.949Z,643.00
2023-05-12T04:22:51.039Z,643.00
2023-05-12T04:23:51.093Z,642.00
2023-05-12T04:24:51.167Z,642.00
2023-05-12T04:25:51.246Z,637.00
2023-05-12T04:26:51.318Z,642.00
2023-05-12T04:27:51.385Z,638.00
2023-05-12T04:28:51.468Z,636.00
2023-05-12T04:29:51.541Z,637.00
2023-05-12T04:30:51.605Z,632.00
2023-05-12T04:31:51.741Z,639.00
2023-05-12T04:32:51.814Z,638.00
2023-05-12T04:33:51.941Z,638.00
2023-05-12T04:34:51.915Z,637.00
2023-05-12T04:35:51.987Z,637.00
2023-05-12T04:36:52.070Z,638.00
2023-05-12T04:37:52.136Z,640.00
2023-05-12T04:38:52.207Z,633.00
2023-05-12T04:39:52.282Z,639.00
2023-05-12T04:40:52.347Z,635.00
2023-05-12T04:41:52.418Z,633.00
2023-05-12T04:42:52.514Z,638.00
2023-05-12T04:44:52.585Z,638.00
2023-05-12T04:45:52.676Z,635.00
2023-05-12T04:46:52.631Z,632.00
2023-05-12T04:47:52.736Z,631.00
2023-05-12T04:48:52.669Z,635.00
2023-05-12T04:49:52.686Z,632.00
2023-05-12T04:50:52.701Z,636.00
2023-05-12T04:51:52.734Z,632.00
2023-05-12T04:52:52.760Z,639.00
2023-05-12T04:53:52.775Z,635.00
2023-05-12T04:54:52.791Z,632.00
2023-05-12T04:55:52.833Z,629.00
2023-05-12T04:56:52.835Z,627.00
2023-05-12T04:57:52.853Z,630.00
2023-05-12T04:58:52.862Z,630.00
2023-05-12T04:59:52.910Z,633.00
2023-05-12T05:00:52.917Z,630.00
2023-05-12T05:01:53.046Z,643.00
2023-05-12T05:02:53.183Z,655.00
2023-05-12T05:03:53.083Z,655.00
2023-05-12T05:04:52.997Z,666.00
2023-05-12T05:05:53.088Z,689.00
2023-05-12T05:06:53.017Z,699.00
2023-05-12T05:07:53.040Z,687.00
2023-05-12T05:08:53.059Z,677.00
2023-05-12T05:09:53.075Z,666.00
2023-05-12T05:10:53.084Z,665.00
2023-05-12T05:11:53.110Z,675.00
2023-05-12T05:12:53.125Z,670.00
2023-05-12T05:13:53.136Z,680.00
2023-05-12T05:14:53.157Z,691.00
2023-05-12T05:15:53.300Z,702.00
2023-05-12T05:16:53.189Z,752.00
2023-05-12T05:17:53.215Z,791.00
2023-05-12T05:18:53.297Z,803.00
2023-05-12T05:19:58.414Z,810.00
2023-05-12T05:20:57.717Z,812.00
2023-05-12T05:22:08.534Z,813.00
2023-05-12T05:22:53.553Z,814.00
2023-05-12T05:23:55.396Z,834.00
2023-05-12T05:24:53.628Z,816.00
2023-05-12T05:25:53.655Z,839.00
2023-05-12T05:26:53.683Z,874.00
2023-05-12T05:27:53.730Z,925.00
2023-05-12T05:28:53.748Z,817.00
2023-05-12T05:29:53.776Z,839.00
2023-05-12T05:30:53.816Z,880.00
2023-05-12T05:31:53.882Z,931.00
2023-05-12T05:32:53.940Z,1052.00
2023-05-12T05:33:53.934Z,1078.00
2023-05-12T05:34:53.892Z,1066.00
2023-05-12T05:35:53.913Z,1083.00
2023-05-12T05:36:53.968Z,1097.00
2023-05-12T05:37:54.086Z,1101.00
2023-05-12T05:38:54.145Z,1109.00
2023-05-12T05:39:54.216Z,1116.00
2023-05-12T05:40:54.802Z,1111.00
2023-05-12T05:41:54.359Z,1126.00
2023-05-12T05:42:54.437Z,1131.00
2023-05-12T05:43:54.497Z,1136.00
2023-05-12T05:44:54.549Z,1114.00
2023-05-12T05:45:54.636Z,1140.00
2023-05-12T05:46:54.745Z,1140.00
2023-05-12T05:47:54.825Z,1135.00
2023-05-12T05:48:54.865Z,1127.00
2023-05-12T05:49:54.941Z,1124.00
2023-05-12T05:50:55.002Z,1120.00
2023-05-12T05:51:55.074Z,1132.00
2023-05-12T05:52:55.149Z,1118.00
2023-05-12T05:53:55.219Z,1142.00
2023-05-12T05:54:55.285Z,1131.00
2023-05-12T05:55:55.352Z,1137.00
2023-05-12T05:56:55.422Z,1126.00
2023-05-12T05:57:55.492Z,1111.00
2023-05-12T05:58:55.560Z,1062.00
2023-05-12T05:59:55.649Z,1042.00
2023-05-12T06:00:55.740Z,1041.00
2023-05-12T06:01:55.831Z,1055.00
2023-05-12T06:02:56.059Z,1078.00
2023-05-12T06:03:56.042Z,1086.00
2023-05-12T06:04:56.041Z,1087.00
2023-05-12T06:05:56.108Z,1104.00
2023-05-12T06:06:56.182Z,1088.00
2023-05-12T06:07:56.281Z,1089.00
2023-05-12T06:08:56.697Z,1069.00
2023-05-12T06:09:56.441Z,1069.00
2023-05-12T06:10:56.520Z,1059.00
2023-05-12T06:11:56.611Z,1057.00
2023-05-12T06:12:56.679Z,1038.00
2023-05-12T06:13:56.827Z,1037.00
2023-05-12T06:14:56.827Z,1013.00
2023-05-12T06:15:56.901Z,1035.00
2023-05-12T06:16:57.069Z,1028.00
2023-05-12T06:17:57.077Z,1023.00
2023-05-12T06:18:57.174Z,1019.00
2023-05-12T06:19:57.184Z,1012.00
2023-05-12T06:20:57.273Z,981.00
2023-05-12T06:21:57.346Z,983.00
2023-05-12T06:22:57.428Z,983.00
2023-05-12T06:23:57.425Z,993.00
2023-05-12T06:24:57.466Z,1001.00
2023-05-12T06:25:58.683Z,1021.00
2023-05-12T06:26:57.569Z,1062.00
2023-05-12T06:27:57.635Z,1055.00
2023-05-12T06:28:57.720Z,1072.00
2023-05-12T06:29:57.758Z,1093.00
2023-05-12T06:30:57.840Z,1097.00
2023-05-12T06:31:57.937Z,1097.00
2023-05-12T06:32:58.091Z,1103.00
2023-05-12T06:33:58.860Z,1109.00
2023-05-12T06:34:58.172Z,1117.00
2023-05-12T06:35:58.254Z,1107.00
2023-05-12T06:36:58.317Z,1129.00
2023-05-12T06:37:58.399Z,1148.00
2023-05-12T06:38:58.405Z,1149.00
2023-05-12T06:39:58.423Z,1150.00
2023-05-12T06:40:58.446Z,1154.00
2023-05-12T06:41:58.553Z,1159.00
2023-05-12T06:42:58.487Z,1160.00
2023-05-12T06:43:58.494Z,1176.00
2023-05-12T06:44:58.530Z,1172.00
2023-05-12T06:45:58.537Z,1176.00
2023-05-12T06:46:58.544Z,1175.00
2023-05-12T06:47:58.674Z,1174.00
2023-05-12T06:48:58.588Z,1188.00
2023-05-12T06:49:58.603Z,1189.00
2023-05-12T06:50:58.632Z,1193.00
2023-05-12T06:51:58.648Z,1191.00
2023-05-12T06:52:58.674Z,1203.00
2023-05-12T06:53:58.703Z,1201.00
2023-05-12T06:54:58.721Z,1211.00
2023-05-12T06:55:58.745Z,1216.00
2023-05-12T06:56:58.756Z,1200.00
2023-05-12T06:57:58.786Z,1200.00
2023-05-12T06:58:58.800Z,1216.00
2023-05-12T06:59:58.803Z,1199.00
2023-05-12T07:00:58.837Z,1203.00
2023-05-12T07:01:58.928Z,1187.00
2023-05-12T07:02:58.973Z,1171.00
2023-05-12T07:03:59.050Z,1203.00
2023-05-12T07:04:59.087Z,1189.00
2023-05-12T07:05:59.168Z,1182.00
2023-05-12T07:06:59.188Z,1183.00
2023-05-12T07:07:59.223Z,1183.00
2023-05-12T07:08:59.236Z,1183.00
2023-05-12T07:09:59.270Z,1184.00
2023-05-12T07:10:59.292Z,1188.00
2023-05-12T07:11:59.307Z,1180.00
2023-05-12T07:12:59.325Z,1176.00
2023-05-12T07:13:59.358Z,1168.00
2023-05-12T07:14:59.383Z,1172.00
2023-05-12T07:15:59.464Z,1157.00
2023-05-12T07:16:59.488Z,1179.00
2023-05-12T07:17:59.515Z,1191.00
2023-05-12T07:18:59.572Z,1193.00
2023-05-12T07:19:59.597Z,1139.00
2023-05-12T07:20:59.642Z,1085.00
2023-05-12T07:21:59.705Z,978.00
2023-05-12T07:22:59.802Z,1006.00
2023-05-12T07:23:59.874Z,1019.00
2023-05-12T07:24:59.973Z,893.00
2023-05-12T07:26:00.886Z,795.00
2023-05-12T07:27:00.014Z,653.00
2023-05-12T07:28:00.133Z,625.00
2023-05-12T07:29:00.175Z,599.00
2023-05-12T07:30:00.189Z,543.00
2023-05-12T07:31:00.248Z,512.00
2023-05-12T07:32:00.232Z,511.00
2023-05-12T07:33:00.386Z,490.00
2023-05-12T07:34:00.271Z,549.00
2023-05-12T07:35:00.315Z,615.00
2023-05-12T07:36:00.324Z,630.00
2023-05-12T07:37:00.348Z,717.00
2023-05-12T07:38:00.385Z,817.00
2023-05-12T07:39:00.403Z,868.00
2023-05-12T07:40:00.427Z,916.00
2023-05-12T07:41:00.617Z,948.00
2023-05-12T07:42:00.598Z,989.00
2023-05-12T07:43:00.679Z,1237.00
2023-05-12T07:44:00.769Z,1209.00
2023-05-12T07:45:01.123Z,1174.00
2023-05-12T07:46:01.024Z,1212.00
2023-05-12T07:47:01.039Z,1259.00
2023-05-12T07:48:01.085Z,1312.00
2023-05-12T07:49:01.164Z,1401.00
2023-05-12T07:50:01.230Z,1423.00
2023-05-12T07:51:01.898Z,1450.00
2023-05-12T07:52:01.365Z,1470.00
2023-05-12T07:53:01.460Z,1466.00
2023-05-12T07:54:01.541Z,1453.00
2023-05-12T07:55:02.411Z,1450.00
2023-05-12T07:56:01.698Z,1434.00
2023-05-12T07:57:01.802Z,1430.00
2023-05-12T07:58:01.862Z,1412.00
2023-05-12T07:59:01.961Z,1400.00
2023-05-12T08:00:02.105Z,1404.00
2023-05-12T08:01:02.109Z,1402.00
2023-05-12T08:02:02.372Z,1401.00
2023-05-12T08:03:02.505Z,1390.00
2023-05-12T08:04:02.451Z,1375.00
2023-05-12T08:05:02.429Z,1356.00
2023-05-12T08:06:02.604Z,1379.00
2023-05-12T08:07:02.621Z,1373.00
2023-05-12T08:08:02.702Z,1357.00
2023-05-12T08:09:02.771Z,1356.00
2023-05-12T08:10:02.849Z,1336.00
2023-05-12T08:11:02.935Z,1341.00
2023-05-12T08:12:03.011Z,1337.00
2023-05-12T08:13:03.050Z,1325.00
2023-05-12T08:14:03.070Z,1311.00
2023-05-12T08:15:03.111Z,1277.00
2023-05-12T08:16:03.921Z,1300.00
2023-05-12T08:17:03.237Z,1340.00
2023-05-12T08:18:03.328Z,1332.00
2023-05-12T08:19:03.960Z,1292.00
2023-05-12T08:20:03.298Z,1310.00
2023-05-12T08:21:03.334Z,1312.00
2023-05-12T08:22:03.357Z,1316.00
2023-05-12T08:23:03.399Z,1314.00
2023-05-12T08:24:03.403Z,1327.00
2023-05-12T08:25:03.448Z,1349.00
2023-05-12T08:26:03.460Z,1345.00
2023-05-12T08:27:03.481Z,1419.00
2023-05-12T08:28:03.498Z,1447.00
2023-05-12T08:29:03.490Z,1515.00
2023-05-12T08:30:03.511Z,1492.00
2023-05-12T08:31:05.044Z,1492.00
2023-05-12T08:32:03.561Z,1460.00
2023-05-12T08:33:04.462Z,1483.00
2023-05-12T08:34:10.335Z,1471.00
2023-05-12T08:35:04.609Z,1472.00
2023-05-12T08:36:04.344Z,1459.00
2023-05-12T08:37:03.624Z,1418.00
2023-05-12T08:38:03.634Z,1394.00
2023-05-12T08:39:03.636Z,1382.00
2023-05-12T08:40:03.778Z,1373.00
2023-05-12T08:41:03.654Z,1374.00
2023-05-12T08:42:03.673Z,1401.00
2023-05-12T08:43:03.692Z,1422.00
2023-05-12T08:44:03.684Z,1392.00
2023-05-12T08:45:03.694Z,1407.00
2023-05-12T08:46:03.723Z,1380.00
2023-05-12T08:47:03.732Z,1379.00
2023-05-12T08:48:03.803Z,1408.00
2023-05-12T08:49:03.726Z,1396.00
2023-05-12T08:50:03.885Z,1384.00
2023-05-12T08:51:03.823Z,1358.00
2023-05-12T08:52:03.864Z,1332.00
2023-05-12T08:53:03.988Z,1332.00
2023-05-12T08:54:03.981Z,1298.00
2023-05-12T08:55:04.054Z,1317.00
2023-05-12T08:58:04.091Z,1323.00
2023-05-12T08:59:04.108Z,1331.00
2023-05-12T09:00:04.130Z,1337.00
2023-05-12T09:01:04.974Z,1357.00
2023-05-12T09:02:04.166Z,1374.00
2023-05-12T09:03:04.172Z,1382.00
2023-05-12T09:04:04.236Z,1372.00
2023-05-12T09:05:04.438Z,1361.00
2023-05-12T09:06:04.177Z,1401.00
2023-05-12T09:07:04.192Z,1439.00
2023-05-12T09:08:04.175Z,1406.00
2023-05-12T09:09:04.250Z,1397.00
2023-05-12T09:10:04.200Z,1361.00
2023-05-12T09:11:04.212Z,1449.00
2023-05-12T09:12:04.242Z,1466.00
2023-05-12T09:13:04.225Z,1462.00
2023-05-12T09:14:04.241Z,1444.00
2023-05-12T09:15:04.232Z,1376.00
2023-05-12T09:16:04.268Z,1332.00
2023-05-12T09:17:04.272Z,1331.00
2023-05-12T09:18:04.338Z,1319.00
2023-05-12T09:19:06.828Z,1265.00
2023-05-12T09:20:04.329Z,1274.00
2023-05-12T09:21:04.340Z,1268.00
2023-05-12T09:22:04.497Z,1244.00
2023-05-12T09:23:04.378Z,1257.00
2023-05-12T09:24:04.408Z,1273.00
2023-05-12T09:25:04.415Z,1278.00
2023-05-12T09:26:04.446Z,1270.00
2023-05-12T09:27:04.457Z,1308.00
2023-05-12T09:28:04.456Z,1266.00
2023-05-12T09:29:04.462Z,1276.00
2023-05-12T09:30:04.471Z,1297.00
2023-05-12T09:31:04.540Z,1303.00
2023-05-12T09:32:04.551Z,1275.00
2023-05-12T09:33:05.480Z,1282.00
2023-05-12T09:34:04.520Z,1283.00
2023-05-12T09:35:04.534Z,1286.00
2023-05-12T09:36:04.538Z,1289.00
2023-05-12T09:37:04.556Z,1293.00
2023-05-12T09:38:04.552Z,1295.00
2023-05-12T09:39:04.648Z,1302.00
2023-05-12T09:40:04.655Z,1285.00
2023-05-12T09:41:04.586Z,1267.00
2023-05-12T09:42:04.618Z,1277.00
2023-05-12T09:43:04.624Z,1254.00
2023-05-12T09:44:04.638Z,1273.00
2023-05-12T09:45:04.627Z,1298.00
2023-05-12T09:46:04.663Z,1299.00
2023-05-12T09:47:04.676Z,1296.00
2023-05-12T09:48:04.770Z,1303.00
2023-05-12T09:49:04.791Z,1318.00
2023-05-12T09:50:04.916Z,1315.00
2023-05-12T09:51:04.894Z,1295.00
2023-05-12T09:52:04.972Z,1319.00
2023-05-12T09:53:04.993Z,1325.00
2023-05-12T09:54:06.427Z,1334.00
2023-05-12T09:55:05.068Z,1344.00
2023-05-12T09:56:05.068Z,1346.00
2023-05-12T09:57:05.229Z,1337.00
2023-05-12T09:58:05.092Z,1320.00
2023-05-12T09:59:05.115Z,1308.00
2023-05-12T10:00:13.793Z,1304.00
2023-05-12T10:02:05.186Z,1308.00
2023-05-12T10:03:05.176Z,1308.00
2023-05-12T10:04:05.176Z,1312.00
2023-05-12T10:05:05.302Z,1312.00
2023-05-12T10:06:07.690Z,1321.00
2023-05-12T10:07:05.230Z,1330.00
2023-05-12T10:08:05.260Z,1325.00
2023-05-12T10:09:05.251Z,1311.00
2023-05-12T10:10:05.290Z,1334.00
2023-05-12T10:11:05.313Z,1323.00
2023-05-12T10:12:05.325Z,1380.00
2023-05-12T10:13:05.373Z,1383.00
2023-05-12T10:14:05.398Z,1389.00
2023-05-12T10:15:05.979Z,1399.00
2023-05-12T10:16:05.457Z,1432.00
2023-05-12T10:17:05.546Z,1428.00
2023-05-12T10:18:05.563Z,1418.00
2023-05-12T10:19:05.645Z,1431.00
2023-05-12T10:20:06.909Z,1453.00
2023-05-12T10:21:05.717Z,1458.00
2023-05-12T10:22:05.610Z,1452.00
2023-05-12T10:23:05.639Z,1436.00
2023-05-12T10:24:05.712Z,1456.00
2023-05-12T10:25:05.774Z,1466.00
2023-05-12T10:26:05.730Z,1473.00
2023-05-12T10:27:05.763Z,1480.00
2023-05-12T10:28:05.801Z,1492.00
2023-05-12T10:29:05.811Z,1506.00
2023-05-12T10:30:05.835Z,1515.00
2023-05-12T10:31:05.900Z,1524.00
2023-05-12T10:32:05.878Z,1516.00
2023-05-12T10:33:05.912Z,1522.00
2023-05-12T10:34:05.936Z,1516.00
2023-05-12T10:35:05.948Z,1513.00
2023-05-12T10:36:05.969Z,1520.00
2023-05-12T10:37:05.995Z,1527.00
2023-05-12T10:38:06.017Z,1497.00
2023-05-12T10:39:06.025Z,1523.00
2023-05-12T10:40:06.046Z,1523.00
2023-05-12T10:41:06.089Z,1515.00
2023-05-12T10:42:06.100Z,1498.00
2023-05-12T10:43:06.108Z,1503.00
2023-05-12T10:44:06.149Z,1496.00
2023-05-12T10:45:06.230Z,1482.00
2023-05-12T10:46:06.425Z,1465.00
2023-05-12T10:47:06.408Z,1479.00
2023-05-12T10:48:07.023Z,1468.00
2023-05-12T10:49:06.559Z,1484.00
2023-05-12T10:50:06.590Z,1501.00
2023-05-12T10:51:06.644Z,1485.00
2023-05-12T10:52:07.420Z,1496.00
2023-05-12T10:53:08.090Z,1497.00
2023-05-12T10:54:06.858Z,1503.00
2023-05-12T10:55:06.941Z,1489.00
2023-05-12T10:56:07.447Z,1479.00
2023-05-12T10:57:07.345Z,1494.00
2023-05-12T10:58:07.615Z,1476.00
2023-05-12T10:59:07.613Z,1482.00
2023-05-12T11:00:07.838Z,1457.00
2023-05-12T11:01:08.124Z,1469.00
2023-05-12T11:02:08.123Z,1482.00
2023-05-12T11:03:10.353Z,1438.00
2023-05-12T11:04:07.642Z,1415.00
2023-05-12T11:05:08.463Z,1403.00
2023-05-12T11:06:08.711Z,1377.00
2023-05-12T11:07:08.029Z,1403.00
2023-05-12T11:08:07.988Z,1413.00
2023-05-12T11:09:08.962Z,1428.00
2023-05-12T11:10:08.129Z,1452.00
2023-05-12T11:11:08.933Z,1460.00
2023-05-12T11:12:08.813Z,1427.00
2023-05-12T11:13:07.739Z,1450.00
2023-05-12T11:14:07.765Z,1437.00
2023-05-12T11:15:07.793Z,1475.00
2023-05-12T11:16:07.787Z,1468.00
2023-05-12T11:17:08.508Z,1456.00
2023-05-12T11:18:07.850Z,1470.00
2023-05-12T11:19:07.881Z,1473.00
2023-05-12T11:20:07.858Z,1504.00
2023-05-12T11:21:07.869Z,1505.00
2023-05-12T11:22:07.942Z,1506.00
2023-05-12T11:23:08.020Z,1496.00
2023-05-12T11:24:08.098Z,1491.00
2023-05-12T11:25:08.240Z,1475.00
2023-05-12T11:26:08.248Z,1462.00
2023-05-12T11:27:08.302Z,1444.00
2023-05-12T11:28:08.378Z,1440.00
2023-05-12T11:29:08.442Z,1443.00
2023-05-12T11:30:08.536Z,1430.00
2023-05-12T11:31:08.591Z,1424.00
2023-05-12T11:32:08.727Z,1419.00
2023-05-12T11:33:08.803Z,1411.00
2023-05-12T11:34:13.285Z,1411.00
2023-05-12T11:35:08.845Z,1412.00
2023-05-12T11:36:08.861Z,1410.00
2023-05-12T11:37:08.897Z,1408.00
2023-05-12T11:38:08.902Z,1389.00
2023-05-12T11:39:08.932Z,1391.00
2023-05-12T11:40:08.939Z,1379.00
2023-05-12T11:41:08.952Z,1380.00
2023-05-12T11:42:12.705Z,1378.00
2023-05-12T11:43:10.006Z,1376.00
2023-05-12T11:44:08.999Z,1358.00
2023-05-12T11:45:09.017Z,1352.00
2023-05-12T11:46:09.145Z,1339.00
2023-05-12T11:47:09.034Z,1329.00
2023-05-12T11:48:09.239Z,1325.00
2023-05-12T11:49:09.078Z,1322.00
2023-05-12T11:50:09.089Z,1318.00
2023-05-12T11:51:09.126Z,1300.00
2023-05-12T11:52:09.117Z,1217.00
2023-05-12T11:53:09.141Z,1191.00
2023-05-12T11:54:09.160Z,1117.00
2023-05-12T11:55:09.226Z,1042.00
2023-05-12T11:56:09.292Z,952.00
2023-05-12T11:57:09.377Z,908.00
2023-05-12T11:58:09.432Z,846.00
2023-05-12T11:59:09.499Z,833.00
2023-05-12T12:00:09.590Z,785.00
2023-05-12T12:01:09.665Z,829.00
2023-05-12T12:02:10.548Z,791.00
2023-05-12T12:03:09.968Z,768.00
2023-05-12T12:04:09.936Z,745.00
2023-05-12T12:05:10.020Z,761.00
2023-05-12T12:06:10.044Z,829.00
2023-05-12T12:07:10.143Z,857.00
2023-05-12T12:08:10.230Z,877.00
2023-05-12T12:09:10.319Z,859.00
2023-05-12T12:10:10.395Z,845.00
2023-05-12T12:11:10.481Z,798.00
2023-05-12T12:12:10.552Z,695.00
2023-05-12T12:13:10.629Z,656.00
2023-05-12T12:14:10.713Z,644.00
2023-05-12T12:15:10.780Z,638.00
2023-05-12T12:16:12.899Z,641.00
2023-05-12T12:17:10.866Z,661.00
2023-05-12T12:18:10.920Z,673.00
2023-05-12T12:19:10.972Z,700.00
2023-05-12T12:20:10.986Z,728.00
2023-05-12T12:21:10.936Z,755.00
2023-05-12T12:22:10.977Z,783.00